Time;durP1;ratioP1;P1;durP2;ratioP2;P2;SDS_P1;SDS_P2;PMS_P1;PMS_P2;Temp;Humidity;BMP_temperature;BMP_pressure;BME280_temperature;BME280_humidity;BME280_pressure;Samples;Min_cycle;Max_cycle;Signal;HPM_P1;HPM_P2
2023/07/26 00:01:02;;;;;;;1.70;1.60;;;21.80;54.30;22.40;100337.00;;;;6272812;22;20148;-54
2023/07/26 00:03:27;;;;;;;2.20;1.80;;;21.70;54.30;22.40;100334.00;;;;6271825;22;20430;-53
2023/07/26 00:05:53;;;;;;;1.80;1.70;;;21.70;54.30;22.30;100337.00;;;;6271507;22;20141;-53
2023/07/26 00:08:19;;;;;;;1.70;1.60;;;21.70;54.40;22.30;100336.00;;;;6271711;22;20180;-53
2023/07/26 00:10:48;;;;;;;1.67;1.57;;;21.70;54.40;22.30;100341.00;;;;6271809;22;20153;-53
2023/07/26 00:13:17;;;;;;;2.27;1.90;;;21.70;54.50;22.30;100331.00;;;;6270111;22;20240;-53
2023/07/26 00:15:43;;;;;;;2.50;1.67;;;21.70;54.60;22.30;100338.00;;;;6271415;22;20807;-53
2023/07/26 00:18:09;;;;;;;1.80;1.70;;;21.70;54.60;22.30;100339.00;;;;6271024;22;20208;-53
2023/07/26 00:20:35;;;;;;;1.60;1.50;;;21.60;54.50;22.30;100339.00;;;;6271189;22;20169;-53
2023/07/26 00:23:02;;;;;;;1.80;1.70;;;21.60;54.60;22.00;100339.00;;;;6271338;22;20203;-53
2023/07/26 00:25:28;;;;;;;1.97;1.70;;;21.60;54.60;22.20;100334.00;;;;6271164;22;20466;-53
2023/07/26 00:27:54;;;;;;;1.80;1.70;;;21.60;54.70;22.20;100336.00;;;;6271074;22;20222;-53
2023/07/26 00:30:20;;;;;;;1.30;1.30;;;21.60;54.80;22.20;100319.00;;;;6271336;22;20493;-52
2023/07/26 00:32:45;;;;;;;2.20;1.80;;;21.60;54.80;22.20;100335.00;;;;6269966;22;20145;-53
2023/07/26 00:35:25;;;;;;;1.70;1.60;;;21.60;54.80;22.20;100337.00;;;;6271439;22;20145;-53
2023/07/26 00:37:51;;;;;;;1.70;1.60;;;21.60;54.90;22.20;100336.00;;;;6271478;22;20177;-53
2023/07/26 00:40:16;;;;;;;2.43;1.70;;;21.50;54.90;22.10;100345.00;;;;6270084;22;20160;-53
2023/07/26 00:42:42;;;;;;;1.70;1.60;;;21.50;54.90;22.10;100341.00;;;;6271353;22;20585;-53
2023/07/26 00:45:08;;;;;;;1.70;1.60;;;21.50;54.90;22.10;100343.00;;;;6271179;22;20145;-53
2023/07/26 00:47:34;;;;;;;2.33;1.73;;;21.50;55.00;22.10;100275.00;;;;6271020;22;20197;-53
2023/07/26 00:50:00;;;;;;;1.90;1.80;;;21.50;55.00;22.10;100325.00;;;;6269877;22;20156;-53
2023/07/26 00:52:26;;;;;;;2.00;1.70;;;21.40;55.00;22.10;100339.00;;;;6269550;22;20582;-53
2023/07/26 00:54:55;;;;;;;1.80;1.70;;;21.40;55.10;22.10;100339.00;;;;6273987;22;20153;-52
2023/07/26 00:57:21;;;;;;;1.73;1.63;;;21.40;55.10;22.00;100350.00;;;;6274691;22;20176;-52
2023/07/26 00:59:46;;;;;;;1.70;1.60;;;21.40;55.20;22.00;100350.00;;;;6269674;22;20615;-54
2023/07/26 01:02:12;;;;;;;1.80;1.70;;;21.40;55.20;22.00;100347.00;;;;6244341;22;20153;-54
2023/07/26 01:04:38;;;;;;;1.80;1.70;;;21.40;55.20;22.00;100354.00;;;;6269487;22;20167;-54
2023/07/26 01:07:41;;;;;;;1.90;1.60;;;21.40;55.30;22.00;100358.00;;;;6269547;22;20160;-54
2023/07/26 01:10:33;;;;;;;1.80;1.70;;;21.40;55.30;22.00;100341.00;;;;6270357;22;20145;-54
2023/07/26 01:13:26;;;;;;;1.70;1.60;;;21.30;55.20;22.00;100357.00;;;;6245153;22;20137;-54
2023/07/26 01:15:52;;;;;;;1.70;1.60;;;21.40;55.30;21.90;100365.00;;;;6269378;22;20517;-54
2023/07/26 01:18:18;;;;;;;1.83;1.70;;;21.30;55.40;21.90;100363.00;;;;6218757;22;20238;-54
2023/07/26 01:20:43;;;;;;;1.60;1.50;;;21.40;55.40;21.90;100369.00;;;;6270901;22;20649;-54
2023/07/26 01:23:09;;;;;;;1.47;1.37;;;21.30;55.40;21.90;100348.00;;;;6270665;22;20145;-54
2023/07/26 01:25:35;;;;;;;1.60;1.50;;;21.30;55.50;21.90;100354.00;;;;6270740;22;20148;-53
2023/07/26 01:28:01;;;;;;;1.80;1.70;;;21.30;55.50;21.90;100353.00;;;;6270641;22;20183;-54
2023/07/26 01:30:30;;;;;;;1.67;1.57;;;21.30;55.60;21.90;100323.00;;;;6270259;22;20152;-54
2023/07/26 01:33:03;;;;;;;1.70;1.60;;;21.30;55.60;21.90;100339.00;;;;6244310;22;20152;-54
2023/07/26 01:35:29;;;;;;;1.90;1.70;;;21.30;55.60;21.90;100342.00;;;;6243896;22;20527;-54
2023/07/26 01:37:55;;;;;;;1.70;1.60;;;21.30;55.60;21.90;100338.00;;;;6268862;22;20188;-54
2023/07/26 01:40:21;;;;;;;2.27;1.90;;;21.30;55.60;21.90;100323.00;;;;6243825;22;20597;-55
2023/07/26 01:42:46;;;;;;;1.60;1.50;;;21.20;55.50;21.80;100342.00;;;;6243893;22;20231;-54
2023/07/26 01:45:12;;;;;;;2.83;1.60;;;21.20;55.50;21.80;100335.00;;;;6268886;22;20148;-54
2023/07/26 01:47:38;;;;;;;1.67;1.40;;;21.20;55.50;21.80;100337.00;;;;6268625;22;20546;-55
2023/07/26 01:50:04;;;;;;;1.80;1.70;;;21.20;56.20;21.80;100341.00;;;;6270438;22;20163;-54
2023/07/26 01:52:30;;;;;;;2.00;1.80;;;21.20;55.70;21.80;100336.00;;;;6270728;22;20494;-54
2023/07/26 01:54:56;;;;;;;2.30;1.60;;;21.20;55.80;21.80;100342.00;;;;6270673;22;20148;-53
2023/07/26 01:57:24;;;;;;;1.80;1.70;;;21.20;55.80;21.80;100336.00;;;;6270210;22;20625;-53
2023/07/26 01:59:50;;;;;;;2.57;1.60;;;21.20;55.80;21.80;100308.00;;;;6270579;22;20483;-53
2023/07/26 02:02:16;;;;;;;1.57;1.47;;;21.20;55.80;21.60;100341.00;;;;6270634;22;20145;-55
2023/07/26 02:04:43;;;;;;;1.60;1.50;;;21.20;55.80;21.80;100346.00;;;;6270234;22;20602;-54
2023/07/26 02:07:09;;;;;;;1.80;1.70;;;21.20;55.90;21.80;100348.00;;;;6270381;22;20145;-54
2023/07/26 02:09:34;;;;;;;1.87;1.77;;;21.20;56.00;21.80;100342.00;;;;6270383;22;20183;-54
2023/07/26 02:12:00;;;;;;;1.73;1.63;;;21.10;55.80;21.80;100340.00;;;;6270747;22;20491;-55
2023/07/26 02:14:26;;;;;;;1.90;1.80;;;21.10;55.90;21.80;100348.00;;;;6270790;22;20152;-55
2023/07/26 02:16:51;;;;;;;2.03;1.70;;;21.10;56.00;21.80;100343.00;;;;6268491;22;20179;-54
2023/07/26 02:19:17;;;;;;;2.07;1.50;;;21.10;56.00;21.80;100344.00;;;;6270439;22;20163;-55
2023/07/26 02:21:43;;;;;;;1.90;1.70;;;21.10;56.00;21.70;100346.00;;;;6270258;22;20149;-54
2023/07/26 02:24:09;;;;;;;2.33;1.80;;;21.10;56.00;21.70;100347.00;;;;6270324;22;20151;-55
2023/07/26 02:26:34;;;;;;;1.90;1.80;;;21.10;56.00;21.40;100342.00;;;;6269914;22;20246;-54
2023/07/26 02:29:00;;;;;;;3.27;2.00;;;21.00;55.90;21.70;100336.00;;;;6270187;22;20226;-54
2023/07/26 02:31:26;;;;;;;2.60;1.80;;;21.00;55.90;21.60;100343.00;;;;6269726;22;20548;-53
2023/07/26 02:33:51;;;;;;;2.17;1.97;;;21.00;56.00;21.60;100344.00;;;;6269949;22;20233;-54
2023/07/26 02:36:17;;;;;;;2.00;1.80;;;21.00;56.00;21.60;100344.00;;;;6270270;22;20752;-54
2023/07/26 02:38:43;;;;;;;2.10;1.90;;;21.00;56.00;21.60;100344.00;;;;6268562;22;20172;-55
2023/07/26 02:41:09;;;;;;;1.90;1.80;;;21.00;56.20;21.60;100347.00;;;;6275808;22;20715;-54
2023/07/26 02:43:34;;;;;;;1.90;1.70;;;21.00;56.20;21.60;100345.00;;;;6277943;22;20209;-54
2023/07/26 02:46:00;;;;;;;1.73;1.63;;;21.00;56.10;21.50;100352.00;;;;6271815;22;20512;-54
2023/07/26 02:48:26;;;;;;;3.57;1.87;;;21.00;56.20;21.50;100343.00;;;;6244932;22;20172;-53
2023/07/26 02:50:51;;;;;;;1.57;1.50;;;20.90;56.20;21.50;100343.00;;;;6272642;22;20157;-53
2023/07/26 02:53:17;;;;;;;2.00;1.80;;;21.00;56.30;21.50;100335.00;;;;6272520;22;20187;-53
2023/07/26 02:55:43;;;;;;;2.47;1.50;;;20.90;56.20;21.50;100347.00;;;;6273349;22;20149;-54
2023/07/26 02:58:09;;;;;;;2.00;1.60;;;20.90;56.30;21.50;100340.00;;;;6273773;22;20181;-53
2023/07/26 03:00:35;;;;;;;2.07;1.87;;;20.90;56.30;21.50;100342.00;;;;6272361;22;20152;-53
2023/07/26 03:03:01;;;;;;;2.70;1.67;;;20.90;56.20;21.50;100341.00;;;;6274397;22;20210;-54
2023/07/26 03:05:27;;;;;;;1.80;1.70;;;20.90;56.70;21.50;100339.00;;;;6273705;22;20149;-54
2023/07/26 03:07:53;;;;;;;1.70;1.60;;;21.00;56.40;21.50;100332.00;;;;6273888;22;20625;-54
2023/07/26 03:10:19;;;;;;;1.87;1.77;;;20.90;56.40;21.50;100335.00;;;;6273923;22;20155;-54
2023/07/26 03:12:45;;;;;;;1.90;1.80;;;20.90;56.40;21.50;100342.00;;;;6273829;22;20145;-54
2023/07/26 03:15:10;;;;;;;1.80;1.70;;;20.90;56.30;21.50;100335.00;;;;6273423;22;20491;-54
2023/07/26 03:17:36;;;;;;;1.97;1.60;;;20.90;56.30;21.50;100341.00;;;;6273319;22;20184;-54
2023/07/26 03:20:03;;;;;;;4.10;1.90;;;20.90;56.40;21.50;100345.00;;;;6272104;22;20492;-54
2023/07/26 03:22:29;;;;;;;2.20;2.00;;;20.90;56.40;21.50;100341.00;;;;6273997;22;20149;-54
2023/07/26 03:24:54;;;;;;;3.83;2.13;;;20.90;56.40;21.50;100350.00;;;;6273577;22;20228;-54
2023/07/26 03:27:20;;;;;;;2.23;1.80;;;20.90;56.40;21.50;100353.00;;;;6273737;22;20168;-54
2023/07/26 03:29:46;;;;;;;2.37;2.10;;;20.90;56.40;21.50;100354.00;;;;6273238;22;20168;-54
2023/07/26 03:32:12;;;;;;;1.93;1.80;;;20.80;56.40;21.40;100349.00;;;;6272617;22;20152;-54
2023/07/26 03:34:38;;;;;;;1.80;1.70;;;20.80;56.40;21.40;100361.00;;;;6273335;22;20540;-54
2023/07/26 03:37:03;;;;;;;2.07;1.83;;;20.80;56.30;21.40;100362.00;;;;6273158;22;20182;-54
2023/07/26 03:39:29;;;;;;;1.70;1.60;;;20.90;56.30;21.40;100364.00;;;;6273444;22;20176;-54
2023/07/26 03:41:55;;;;;;;2.20;1.90;;;20.80;56.30;21.40;100360.00;;;;6273620;22;20489;-54
2023/07/26 03:44:21;;;;;;;2.00;1.90;;;20.80;56.40;21.40;100360.00;;;;6273343;22;20152;-54
2023/07/26 03:46:46;;;;;;;3.73;1.90;;;20.80;56.40;21.40;100357.00;;;;6272979;22;20156;-53
2023/07/26 03:49:12;;;;;;;2.20;1.80;;;20.80;56.40;21.40;100355.00;;;;6271565;22;20181;-54
2023/07/26 03:51:38;;;;;;;2.17;1.97;;;20.80;56.40;21.40;100367.00;;;;6273181;22;20149;-54
2023/07/26 03:54:03;;;;;;;2.20;1.90;;;20.70;56.40;21.30;100367.00;;;;6272991;22;20497;-54
2023/07/26 03:56:29;;;;;;;2.33;1.83;;;20.70;56.40;21.30;100363.00;;;;6273104;22;20173;-54
2023/07/26 03:58:55;;;;;;;2.23;2.00;;;20.70;56.40;21.30;100364.00;;;;6273629;22;20165;-53
2023/07/26 04:01:21;;;;;;;2.10;1.90;;;20.60;56.50;21.30;100378.00;;;;6266556;22;20151;-54
2023/07/26 04:03:46;;;;;;;3.10;2.10;;;20.60;56.50;21.30;100376.00;;;;6271817;22;20156;-53
2023/07/26 04:06:12;;;;;;;1.80;1.70;;;20.60;56.50;21.20;100378.00;;;;6271364;22;20152;-53
2023/07/26 04:08:42;;;;;;;3.50;2.00;;;20.70;56.60;21.30;100378.00;;;;6272639;22;20167;-53
2023/07/26 04:11:08;;;;;;;2.10;1.90;;;20.70;56.60;21.30;100391.00;;;;6272207;22;20149;-53
2023/07/26 04:13:34;;;;;;;3.30;1.97;;;20.70;56.60;21.30;100396.00;;;;6263123;22;20230;-54
2023/07/26 04:16:00;;;;;;;3.87;2.17;;;20.60;56.50;21.20;100396.00;;;;6268457;22;20230;-53
2023/07/26 04:18:26;;;;;;;4.77;2.20;;;20.60;56.60;21.20;100402.00;;;;6272180;22;20194;-54
2023/07/26 04:20:52;;;;;;;5.90;2.70;;;20.60;56.70;21.20;100406.00;;;;6271991;22;20227;-54
2023/07/26 04:23:17;;;;;;;3.37;2.00;;;20.60;56.70;21.20;100415.00;;;;6272185;22;20175;-55
2023/07/26 04:25:49;;;;;;;4.00;2.20;;;20.60;56.80;21.20;100425.00;;;;6270613;22;20629;-55
2023/07/26 04:28:15;;;;;;;6.33;2.33;;;20.50;56.90;21.20;100426.00;;;;6270777;22;20164;-55
2023/07/26 04:30:41;;;;;;;3.23;2.00;;;20.50;57.10;21.10;100422.00;;;;6270586;22;20151;-55
2023/07/26 04:33:07;;;;;;;4.63;2.10;;;20.50;57.10;21.10;100425.00;;;;6270741;22;20469;-54
2023/07/26 04:35:32;;;;;;;3.13;2.10;;;20.40;57.30;21.00;100421.00;;;;6270924;22;20152;-54
2023/07/26 04:37:58;;;;;;;3.60;2.50;;;20.40;57.40;21.00;100410.00;;;;6272116;22;20177;-54
2023/07/26 04:40:24;;;;;;;4.97;2.20;;;20.40;57.50;21.00;100404.00;;;;6274811;22;20149;-54
2023/07/26 04:42:49;;;;;;;4.13;2.40;;;20.40;57.70;21.00;100403.00;;;;6276096;22;20144;-54
2023/07/26 04:45:15;;;;;;;4.60;2.40;;;20.40;57.70;21.00;100418.00;;;;6271107;22;20144;-54
2023/07/26 04:47:41;;;;;;;3.07;2.40;;;20.30;57.60;20.90;100404.00;;;;6271700;22;20162;-54
2023/07/26 04:50:07;;;;;;;3.83;2.13;;;20.30;57.70;21.00;100413.00;;;;6271993;22;20343;-55
2023/07/26 04:52:37;;;;;;;3.70;2.30;;;20.40;57.80;21.00;100404.00;;;;6271892;22;20594;-55
2023/07/26 04:55:05;;;;;;;3.93;2.30;;;20.30;57.70;21.00;100414.00;;;;6274500;22;20129;-54
2023/07/26 04:57:30;;;;;;;2.60;2.30;;;20.40;57.80;21.00;100406.00;;;;6275007;22;20662;-54
2023/07/26 04:59:56;;;;;;;3.23;2.63;;;20.50;57.60;21.00;100395.00;;;;6272254;22;20148;-54
2023/07/26 05:02:22;;;;;;;2.73;2.50;;;20.50;57.60;21.00;100388.00;;;;6270510;22;20149;-54
2023/07/26 05:04:48;;;;;;;3.80;2.30;;;20.50;57.60;21.10;100390.00;;;;6271551;22;20151;-54
2023/07/26 05:07:13;;;;;;;3.43;2.40;;;20.50;57.50;21.10;100394.00;;;;6271197;22;20156;-54
2023/07/26 05:09:39;;;;;;;3.50;2.40;;;20.50;57.40;21.10;100394.00;;;;6271937;22;20175;-54
2023/07/26 05:12:05;;;;;;;3.43;2.27;;;20.50;57.40;21.10;100391.00;;;;6271982;22;20470;-54
2023/07/26 05:14:31;;;;;;;3.80;2.27;;;20.50;57.40;21.10;100398.00;;;;6271084;22;20203;-54
2023/07/26 05:16:57;;;;;;;3.60;2.23;;;20.50;57.30;21.10;100392.00;;;;6269477;22;20267;-54
2023/07/26 05:19:22;;;;;;;2.37;2.17;;;20.50;57.30;21.10;100394.00;;;;6269977;22;20161;-54
2023/07/26 05:21:48;;;;;;;3.20;2.00;;;20.50;57.40;21.10;100401.00;;;;6271842;22;20176;-54
2023/07/26 05:24:14;;;;;;;2.30;2.10;;;20.50;57.30;21.10;100400.00;;;;6271608;22;20159;-54
2023/07/26 05:26:40;;;;;;;2.63;2.00;;;20.50;57.30;21.10;100401.00;;;;6270535;22;20152;-54
2023/07/26 05:29:05;;;;;;;2.30;2.10;;;20.40;57.20;21.10;100409.00;;;;6271597;22;20173;-57
2023/07/26 05:31:31;;;;;;;2.60;2.00;;;20.40;57.20;21.00;100411.00;;;;6267100;22;20495;-55
2023/07/26 05:33:57;;;;;;;2.10;1.90;;;20.40;57.20;21.10;100416.00;;;;6266223;22;20146;-54
2023/07/26 05:36:22;;;;;;;3.47;2.30;;;20.50;57.20;21.10;100416.00;;;;6268509;22;20152;-55
2023/07/26 05:38:48;;;;;;;2.83;2.30;;;20.40;57.10;21.10;100435.00;;;;6270226;22;20165;-55
2023/07/26 05:41:14;;;;;;;2.20;2.00;;;20.40;57.10;21.00;100443.00;;;;6270843;22;20693;-54
2023/07/26 05:43:40;;;;;;;3.70;2.20;;;20.40;57.00;21.10;100428.00;;;;6270218;22;20141;-55
2023/07/26 05:46:07;;;;;;;4.27;2.13;;;20.40;57.10;21.10;100425.00;;;;6263349;22;20152;-55
2023/07/26 05:48:33;;;;;;;2.37;1.90;;;20.50;57.10;21.00;100414.00;;;;6271654;22;20182;-55
2023/07/26 05:50:59;;;;;;;2.20;2.00;;;20.50;57.20;21.00;100418.00;;;;6266978;22;20175;-55
2023/07/26 05:53:25;;;;;;;3.10;1.90;;;20.40;57.10;21.00;100422.00;;;;6271714;22;20262;-55
2023/07/26 05:55:51;;;;;;;2.37;2.10;;;20.40;57.00;21.00;100413.00;;;;6269420;22;20612;-54
2023/07/26 05:58:17;;;;;;;2.13;1.90;;;20.40;57.00;21.00;100418.00;;;;6271591;22;20192;-55
2023/07/26 06:00:42;;;;;;;3.20;2.20;;;20.40;57.70;21.00;100415.00;;;;6269336;22;20535;-55
2023/07/26 06:03:08;;;;;;;2.20;2.00;;;20.40;57.10;21.00;100427.00;;;;6271107;22;20155;-55
2023/07/26 06:05:35;;;;;;;2.47;2.00;;;20.40;57.10;21.00;100424.00;;;;6269538;22;20149;-55
2023/07/26 06:08:01;;;;;;;2.07;1.87;;;20.40;57.00;21.00;100424.00;;;;6269577;22;20231;-55
2023/07/26 06:10:26;;;;;;;2.20;2.00;;;20.40;57.00;21.00;100431.00;;;;6271018;22;20492;-55
2023/07/26 06:12:52;;;;;;;2.30;2.10;;;20.40;57.00;21.00;100432.00;;;;6268753;22;20154;-55
2023/07/26 06:15:18;;;;;;;2.47;1.80;;;20.40;57.10;21.00;100426.00;;;;6269543;22;20203;-55
2023/07/26 06:17:43;;;;;;;2.10;1.90;;;20.30;57.00;21.00;100429.00;;;;6268661;22;20184;-55
2023/07/26 06:20:10;;;;;;;2.30;2.00;;;20.30;57.10;21.00;100423.00;;;;6268623;22;20202;-54
2023/07/26 06:22:36;;;;;;;2.20;2.00;;;20.40;57.10;21.00;100394.00;;;;6269617;22;20154;-54
2023/07/26 06:25:03;;;;;;;2.10;1.90;;;20.40;57.20;21.00;100429.00;;;;6265563;22;20152;-54
2023/07/26 06:27:28;;;;;;;1.97;1.87;;;20.30;57.00;21.00;100432.00;;;;6268764;22;20492;-54
2023/07/26 06:29:55;;;;;;;2.10;1.90;;;20.30;57.10;21.00;100425.00;;;;6270960;22;20155;-54
2023/07/26 06:32:20;;;;;;;2.20;1.97;;;20.30;57.00;21.00;100428.00;;;;6270797;22;20529;-55
2023/07/26 06:34:46;;;;;;;2.20;2.00;;;20.30;57.00;21.00;100423.00;;;;6268360;22;20149;-55
2023/07/26 06:37:12;;;;;;;2.10;1.90;;;20.30;57.10;21.00;100429.00;;;;6268832;22;20221;-58
2023/07/26 06:39:38;;;;;;;1.87;1.77;;;20.40;57.20;21.00;100426.00;;;;6243898;22;20179;-60
2023/07/26 06:42:04;;;;;;;2.13;1.73;;;20.30;57.10;21.00;100427.00;;;;6275432;22;20642;-60
2023/07/26 06:44:29;;;;;;;2.03;1.80;;;20.30;57.20;21.00;100434.00;;;;6259482;22;20179;-59
2023/07/26 06:46:55;;;;;;;1.90;1.80;;;20.30;57.80;21.00;100436.00;;;;6260381;22;20187;-59
2023/07/26 06:49:21;;;;;;;2.17;1.90;;;20.30;57.80;21.00;100436.00;;;;6271440;22;20477;-60
2023/07/26 06:51:50;;;;;;;2.23;2.00;;;20.30;57.30;21.00;100443.00;;;;6268434;22;20153;-60
2023/07/26 06:54:16;;;;;;;2.10;1.90;;;20.30;57.30;21.00;100427.00;;;;6272221;22;20197;-59
2023/07/26 06:56:42;;;;;;;2.00;1.80;;;20.30;57.30;21.00;100435.00;;;;6275155;22;20173;-59
2023/07/26 06:59:08;;;;;;;1.90;1.80;;;20.20;57.20;20.90;100448.00;;;;6268812;22;20165;-60
2023/07/26 07:01:34;;;;;;;1.90;1.80;;;20.30;57.30;20.70;100441.00;;;;6270411;22;20150;-59
2023/07/26 07:03:59;;;;;;;1.80;1.70;;;20.30;57.30;21.00;100435.00;;;;6268299;22;20508;-59
2023/07/26 07:06:25;;;;;;;1.90;1.80;;;20.30;57.30;20.90;100447.00;;;;6269454;22;20142;-59
2023/07/26 07:08:51;;;;;;;2.10;1.70;;;20.30;57.30;21.00;100444.00;;;;6270899;22;20167;-59
2023/07/26 07:11:17;;;;;;;2.03;1.90;;;20.30;57.40;21.00;100453.00;;;;6269987;22;20145;-59
2023/07/26 07:13:43;;;;;;;1.90;1.80;;;20.30;57.40;21.00;100455.00;;;;6270869;22;20156;-59
2023/07/26 07:16:09;;;;;;;1.90;1.80;;;20.30;57.30;21.00;100458.00;;;;6269948;22;20527;-58
2023/07/26 07:18:34;;;;;;;2.67;1.90;;;20.30;57.40;21.00;100437.00;;;;6270423;22;20246;-60
2023/07/26 07:21:00;;;;;;;1.90;1.70;;;20.30;57.40;21.00;100462.00;;;;6270499;22;20198;-60
2023/07/26 07:23:27;;;;;;;1.80;1.70;;;20.30;57.40;21.00;100451.00;;;;6270920;22;20765;-60
2023/07/26 07:25:53;;;;;;;2.53;1.90;;;20.30;57.40;20.90;100454.00;;;;6268468;22;20156;-59
2023/07/26 07:28:19;;;;;;;1.80;1.70;;;20.30;57.50;21.00;100456.00;;;;6270336;22;20174;-59
2023/07/26 07:30:45;;;;;;;2.93;2.00;;;20.30;57.40;21.00;100449.00;;;;6272669;22;20153;-59
2023/07/26 07:33:11;;;;;;;1.90;1.80;;;20.20;57.40;21.00;100458.00;;;;6271458;22;20470;-59
2023/07/26 07:35:37;;;;;;;2.60;1.80;;;20.30;57.50;21.00;100464.00;;;;6270923;22;20154;-59
2023/07/26 07:38:03;;;;;;;2.00;1.80;;;20.30;57.50;21.00;100472.00;;;;6272765;22;20179;-59
2023/07/26 07:40:29;;;;;;;1.97;1.87;;;20.20;57.50;21.00;100461.00;;;;6271656;22;20156;-59
2023/07/26 07:42:55;;;;;;;2.23;1.70;;;20.20;57.60;21.00;100456.00;;;;6269772;22;20160;-60
2023/07/26 07:45:20;;;;;;;1.80;1.70;;;20.30;57.70;21.00;100466.00;;;;6271725;22;20152;-59
2023/07/26 07:47:46;;;;;;;1.70;1.60;;;20.30;57.70;21.00;100459.00;;;;6271020;22;20155;-59
2023/07/26 07:50:12;;;;;;;1.73;1.60;;;20.30;57.70;21.00;100460.00;;;;6272600;22;20145;-59
2023/07/26 07:52:38;;;;;;;1.80;1.70;;;20.30;57.70;21.00;100460.00;;;;6271667;22;20197;-59
2023/07/26 07:55:04;;;;;;;2.33;1.90;;;20.30;57.70;21.00;100457.00;;;;6270908;22;20157;-59
2023/07/26 07:57:29;;;;;;;2.00;1.90;;;20.30;57.80;21.00;100462.00;;;;6269658;22;20187;-59
2023/07/26 07:59:55;;;;;;;2.17;1.80;;;20.30;57.70;21.00;100467.00;;;;6272282;22;20464;-59
2023/07/26 08:02:21;;;;;;;1.80;1.70;;;20.30;57.90;21.00;100468.00;;;;6270433;22;20144;-59
2023/07/26 08:04:47;;;;;;;1.97;1.87;;;20.30;57.80;21.00;100463.00;;;;6270869;22;20217;-59
2023/07/26 08:07:12;;;;;;;2.23;1.80;;;20.30;57.90;21.00;100475.00;;;;6271422;22;20155;-59
2023/07/26 08:09:41;;;;;;;1.93;1.83;;;20.30;57.90;21.00;100458.00;;;;6267930;22;20167;-58
2023/07/26 08:12:07;;;;;;;4.23;1.80;;;20.30;58.00;21.10;100456.00;;;;6266413;22;20237;-59
2023/07/26 08:14:32;;;;;;;2.30;1.60;;;20.40;58.10;21.00;100460.00;;;;6269840;22;20148;-59
2023/07/26 08:16:58;;;;;;;2.47;2.00;;;20.30;58.10;21.00;100465.00;;;;6270566;22;20184;-60
2023/07/26 08:19:24;;;;;;;2.37;1.70;;;20.40;58.20;21.10;100463.00;;;;6269447;22;20163;-59
2023/07/26 08:21:50;;;;;;;2.03;1.90;;;20.30;58.20;21.00;100462.00;;;;6271089;22;20146;-59
2023/07/26 08:24:15;;;;;;;4.00;1.90;;;20.30;58.30;21.10;100465.00;;;;6269859;22;20532;-59
2023/07/26 08:26:41;;;;;;;1.90;1.80;;;20.30;58.30;21.10;100467.00;;;;6270619;22;20594;-59
2023/07/26 08:29:07;;;;;;;3.50;2.00;;;20.40;58.50;21.10;100466.00;;;;6270602;22;20167;-59
2023/07/26 08:31:33;;;;;;;2.50;2.10;;;20.30;58.40;21.10;100467.00;;;;6270771;22;20719;-59
2023/07/26 08:33:58;;;;;;;2.63;2.10;;;20.30;58.50;21.10;100463.00;;;;6245978;22;20174;-59
2023/07/26 08:36:24;;;;;;;2.10;1.90;;;20.30;58.50;21.10;100460.00;;;;6271484;22;20162;-60
2023/07/26 08:38:50;;;;;;;2.30;2.00;;;20.40;58.60;21.10;100464.00;;;;6275505;22;20502;-60
2023/07/26 08:41:15;;;;;;;3.23;2.00;;;20.30;58.90;21.10;100451.00;;;;6279242;22;20230;-60
2023/07/26 08:43:41;;;;;;;9.43;2.80;;;20.30;58.60;20.80;100452.00;;;;6272758;22;20484;-60
2023/07/26 08:46:07;;;;;;;5.83;2.40;;;20.30;58.70;21.10;100459.00;;;;6244820;22;20176;-60
2023/07/26 08:48:33;;;;;;;4.93;2.20;;;20.30;58.70;21.10;100454.00;;;;6220995;22;20195;-60
2023/07/26 08:51:00;;;;;;;4.17;2.20;;;20.40;58.80;21.10;100452.00;;;;6220841;22;20159;-60
2023/07/26 08:53:27;;;;;;;4.67;1.90;;;20.30;58.70;21.10;100451.00;;;;6276156;22;20242;-60
2023/07/26 08:55:53;;;;;;;5.07;2.30;;;20.30;58.70;21.10;100450.00;;;;6282847;22;20148;-60
2023/07/26 08:58:18;;;;;;;3.40;2.00;;;20.40;58.90;21.10;100447.00;;;;6221219;22;20186;-60
2023/07/26 09:00:45;;;;;;;7.87;2.13;;;20.30;58.80;21.10;100446.00;;;;6272245;22;20152;-60
2023/07/26 09:03:11;;;;;;;7.23;2.23;;;20.40;59.10;21.10;100438.00;;;;6272981;22;20616;-60
2023/07/26 09:05:37;;;;;;;4.50;2.03;;;20.40;59.00;21.10;100439.00;;;;6271452;22;20156;-60
2023/07/26 09:08:03;;;;;;;5.97;3.00;;;20.30;59.10;21.10;100433.00;;;;6272416;22;20201;-60
2023/07/26 09:10:30;;;;;;;8.47;2.43;;;20.40;59.20;21.10;100446.00;;;;6272566;22;20239;-60
2023/07/26 09:13:11;;;;;;;4.63;2.30;;;20.40;59.10;21.10;100437.00;;;;6272027;22;20157;-60
2023/07/26 09:15:40;;;;;;;2.80;2.00;;;20.40;59.20;21.10;100437.00;;;;6271376;22;20153;-60
2023/07/26 09:18:06;;;;;;;6.57;2.37;;;20.30;59.10;21.10;100431.00;;;;6272113;22;20193;-60
2023/07/26 09:20:32;;;;;;;7.83;2.63;;;20.40;59.20;21.10;100422.00;;;;6272074;22;20294;-60
2023/07/26 09:23:04;;;;;;;4.80;2.30;;;20.40;59.20;21.10;100423.00;;;;6272144;22;20145;-60
2023/07/26 09:25:35;;;;;;;3.07;2.10;;;20.30;59.10;21.20;100404.00;;;;6271603;22;20157;-60
2023/07/26 09:28:02;;;;;;;4.50;2.27;;;20.40;59.20;21.20;100407.00;;;;6270612;22;20544;-60
2023/07/26 09:30:28;;;;;;;2.80;2.00;;;20.30;59.10;21.20;100406.00;;;;6271173;22;20148;-60
2023/07/26 09:32:56;;;;;;;4.30;2.40;;;20.40;59.20;21.20;100413.00;;;;6270440;22;20205;-60
2023/07/26 09:35:22;;;;;;;4.73;2.40;;;20.40;59.30;21.20;100405.00;;;;6271860;22;20194;-60
2023/07/26 09:37:48;;;;;;;4.30;2.20;;;20.40;59.40;21.20;100410.00;;;;6269803;22;20169;-61
2023/07/26 09:40:13;;;;;;;3.03;2.10;;;20.40;59.40;21.20;100412.00;;;;6270719;22;20176;-61
2023/07/26 09:42:46;;;;;;;5.13;2.50;;;20.40;59.50;21.20;100411.00;;;;6272156;22;20150;-61
2023/07/26 09:45:18;;;;;;;4.97;2.20;;;20.40;59.50;21.20;100407.00;;;;6270864;22;20156;-60
2023/07/26 09:47:44;;;;;;;3.57;2.30;;;20.40;59.70;21.20;100407.00;;;;6271541;22;20487;-60
2023/07/26 09:50:27;;;;;;;3.27;2.40;;;20.40;59.60;21.20;100403.00;;;;6272144;22;20191;-60
2023/07/26 09:52:54;;;;;;;2.53;2.10;;;20.40;59.70;21.20;100401.00;;;;6271850;22;20148;-60
2023/07/26 09:55:22;;;;;;;2.90;2.20;;;20.40;59.70;21.20;100407.00;;;;6271348;22;20195;-60
2023/07/26 09:57:48;;;;;;;2.50;2.23;;;20.40;59.70;21.20;100413.00;;;;6270184;22;20695;-60
2023/07/26 10:00:15;;;;;;;2.43;2.10;;;20.40;59.80;21.20;100407.00;;;;6245031;22;20141;-60
2023/07/26 10:02:41;;;;;;;2.80;2.17;;;20.40;59.80;21.20;100412.00;;;;6270386;22;20232;-60
2023/07/26 10:05:07;;;;;;;2.93;2.50;;;20.40;60.00;21.30;100423.00;;;;6244703;22;20141;-60
2023/07/26 10:07:32;;;;;;;2.90;1.97;;;20.40;59.90;21.30;100418.00;;;;6269494;22;20153;-60
2023/07/26 10:10:00;;;;;;;3.33;2.13;;;20.40;59.90;21.30;100413.00;;;;6245108;22;20616;-60
2023/07/26 10:12:26;;;;;;;3.93;2.23;;;20.40;59.90;21.30;100421.00;;;;6245157;22;20163;-60
2023/07/26 10:14:55;;;;;;;3.43;2.10;;;20.40;60.00;21.30;100441.00;;;;6270282;22;20149;-60
2023/07/26 10:17:20;;;;;;;2.30;2.10;;;20.40;60.00;21.30;100468.00;;;;6269327;22;20206;-60
2023/07/26 10:19:46;;;;;;;2.27;2.00;;;20.40;60.00;21.30;100437.00;;;;6245098;22;20164;-60
2023/07/26 10:22:12;;;;;;;2.87;2.13;;;20.50;60.20;21.30;100425.00;;;;6219556;22;20148;-60
2023/07/26 10:24:38;;;;;;;2.30;2.10;;;20.40;60.00;21.30;100455.00;;;;6269945;22;20147;-60
2023/07/26 10:27:04;;;;;;;2.27;2.07;;;20.50;60.10;21.30;100451.00;;;;6270629;22;20160;-60
2023/07/26 10:29:29;;;;;;;2.53;2.10;;;20.50;60.00;21.30;100462.00;;;;6218381;22;20265;-59
2023/07/26 10:32:08;;;;;;;2.63;2.00;;;20.50;60.00;21.30;100468.00;;;;6270122;22;20617;-60
2023/07/26 10:34:34;;;;;;;2.20;2.00;;;20.50;60.00;21.30;100475.00;;;;6271834;22;20492;-60
2023/07/26 10:37:01;;;;;;;3.23;2.10;;;20.40;59.90;21.30;100471.00;;;;6268833;22;20171;-59
2023/07/26 10:39:33;;;;;;;3.00;2.30;;;20.40;60.30;21.30;100463.00;;;;6277531;22;20261;-59
2023/07/26 10:41:59;;;;;;;2.57;2.00;;;20.40;60.40;21.30;100477.00;;;;6276693;22;20156;-60
2023/07/26 10:44:25;;;;;;;4.67;2.10;;;20.50;60.50;21.40;100492.00;;;;6272326;22;20155;-60